sensor_id;sensor_type;location;lat;lon;timestamp;P1;durP1;ratioP1;P2;durP2;ratioP2
37341;SDS011;58643;49.052;8.518;2024-02-21T08:01:04;10.80;;;3.70;;
37341;SDS011;58643;49.052;8.518;2024-02-21T08:03:30;9.45;;;3.10;;
37341;SDS011;58643;49.052;8.518;2024-02-21T08:05:55;7.90;;;2.80;;
37341;SDS011;58643;49.052;8.518;2024-02-21T08:08:21;9.85;;;2.90;;
37341;SDS011;58643;49.052;8.518;2024-02-21T08:10:47;11.18;;;3.20;;
37341;SDS011;58643;49.052;8.518;2024-02-21T08:13:14;9.80;;;3.20;;
37341;SDS011;58643;49.052;8.518;2024-02-21T08:15:39;14.68;;;4.00;;
37341;SDS011;58643;49.052;8.518;2024-02-21T08:18:06;11.75;;;4.28;;
37341;SDS011;58643;49.052;8.518;2024-02-21T08:20:32;14.43;;;3.70;;
37341;SDS011;58643;49.052;8.518;2024-02-21T08:22:58;6.20;;;2.58;;
37341;SDS011;58643;49.052;8.518;2024-02-21T08:25:23;9.85;;;3.00;;
37341;SDS011;58643;49.052;8.518;2024-02-21T08:27:49;7.78;;;2.83;;
37341;SDS011;58643;49.052;8.518;2024-02-21T08:30:16;8.55;;;3.13;;
37341;SDS011;58643;49.052;8.518;2024-02-21T08:32:42;11.63;;;3.13;;
37341;SDS011;58643;49.052;8.518;2024-02-21T08:35:08;10.50;;;3.25;;
37341;SDS011;58643;49.052;8.518;2024-02-21T08:37:33;15.50;;;3.08;;
37341;SDS011;58643;49.052;8.518;2024-02-21T08:39:59;11.98;;;3.10;;
37341;SDS011;58643;49.052;8.518;2024-02-21T08:42:32;9.05;;;3.10;;
37341;SDS011;58643;49.052;8.518;2024-02-21T08:44:58;13.85;;;3.40;;
37341;SDS011;58643;49.052;8.518;2024-02-21T08:47:24;9.43;;;3.15;;
37341;SDS011;58643;49.052;8.518;2024-02-21T08:49:49;13.00;;;3.30;;
37341;SDS011;58643;49.052;8.518;2024-02-21T08:52:15;12.50;;;3.15;;
37341;SDS011;58643;49.052;8.518;2024-02-21T08:54:41;10.75;;;3.05;;
37341;SDS011;58643;49.052;8.518;2024-02-21T08:57:06;6.93;;;2.92;;
37341;SDS011;58643;49.052;8.518;2024-02-21T08:59:32;10.25;;;2.90;;
37341;SDS011;58643;49.052;8.518;2024-02-21T09:01:58;7.03;;;2.33;;
37341;SDS011;58643;49.052;8.518;2024-02-21T09:04:23;9.50;;;3.25;;
37341;SDS011;58643;49.052;8.518;2024-02-21T09:06:49;11.98;;;2.97;;
37341;SDS011;58643;49.052;8.518;2024-02-21T09:09:15;7.97;;;2.90;;
37341;SDS011;58643;49.052;8.518;2024-02-21T09:11:40;13.10;;;2.72;;
37341;SDS011;58643;49.052;8.518;2024-02-21T09:14:06;10.57;;;3.15;;
37341;SDS011;58643;49.052;8.518;2024-02-21T09:16:32;10.27;;;2.72;;
37341;SDS011;58643;49.052;8.518;2024-02-21T09:18:58;10.70;;;2.83;;
37341;SDS011;58643;49.052;8.518;2024-02-21T09:21:24;13.68;;;2.90;;
37341;SDS011;58643;49.052;8.518;2024-02-21T09:23:49;7.90;;;2.53;;
37341;SDS011;58643;49.052;8.518;2024-02-21T09:26:15;10.82;;;3.15;;
37341;SDS011;58643;49.052;8.518;2024-02-21T09:28:41;9.95;;;2.65;;
37341;SDS011;58643;49.052;8.518;2024-02-21T09:31:07;15.07;;;3.38;;
37341;SDS011;58643;49.052;8.518;2024-02-21T09:33:32;10.10;;;2.50;;
37341;SDS011;58643;49.052;8.518;2024-02-21T09:35:58;10.65;;;2.95;;
37341;SDS011;58643;49.052;8.518;2024-02-21T09:38:24;11.68;;;3.15;;
37341;SDS011;58643;49.052;8.518;2024-02-21T09:40:58;10.95;;;2.78;;
37341;SDS011;58643;49.052;8.518;2024-02-21T09:43:28;6.70;;;3.08;;
37341;SDS011;58643;49.052;8.518;2024-02-21T09:45:54;7.38;;;2.80;;
37341;SDS011;58643;49.052;8.518;2024-02-21T09:51:26;11.02;;;2.53;;
37341;SDS011;58643;49.052;8.518;2024-02-21T09:53:56;7.70;;;2.83;;
37341;SDS011;58643;49.052;8.518;2024-02-21T09:56:22;8.30;;;2.10;;
37341;SDS011;58643;49.052;8.518;2024-02-21T09:58:48;10.93;;;2.40;;
37341;SDS011;58643;49.052;8.518;2024-02-21T10:01:13;8.70;;;2.42;;
37341;SDS011;58643;49.052;8.518;2024-02-21T10:03:39;11.68;;;2.83;;
37341;SDS011;58643;49.052;8.518;2024-02-21T10:06:05;11.95;;;2.97;;
37341;SDS011;58643;49.052;8.518;2024-02-21T10:08:30;12.18;;;2.58;;
37341;SDS011;58643;49.052;8.518;2024-02-21T10:10:56;7.88;;;2.75;;
37341;SDS011;58643;49.052;8.518;2024-02-21T10:13:25;6.80;;;2.88;;
37341;SDS011;58643;49.052;8.518;2024-02-21T10:16:05;8.93;;;2.33;;
37341;SDS011;58643;49.052;8.518;2024-02-21T10:18:32;14.10;;;2.53;;
37341;SDS011;58643;49.052;8.518;2024-02-21T10:21:04;9.45;;;2.80;;
37341;SDS011;58643;49.052;8.518;2024-02-21T10:23:43;10.13;;;2.63;;
37341;SDS011;58643;49.052;8.518;2024-02-21T10:26:10;9.15;;;2.53;;
37341;SDS011;58643;49.052;8.518;2024-02-21T10:28:37;7.97;;;2.67;;
37341;SDS011;58643;49.052;8.518;2024-02-21T10:31:11;10.48;;;2.60;;
37341;SDS011;58643;49.052;8.518;2024-02-21T10:33:53;9.93;;;2.42;;
37341;SDS011;58643;49.052;8.518;2024-02-21T10:36:19;5.78;;;2.15;;
37341;SDS011;58643;49.052;8.518;2024-02-21T10:38:45;16.40;;;2.92;;
37341;SDS011;58643;49.052;8.518;2024-02-21T10:41:10;8.73;;;2.40;;
37341;SDS011;58643;49.052;8.518;2024-02-21T10:43:41;11.55;;;2.60;;
37341;SDS011;58643;49.052;8.518;2024-02-21T10:46:07;13.00;;;2.13;;
37341;SDS011;58643;49.052;8.518;2024-02-21T10:48:43;7.68;;;2.08;;
37341;SDS011;58643;49.052;8.518;2024-02-21T10:51:19;8.07;;;2.10;;
37341;SDS011;58643;49.052;8.518;2024-02-21T10:53:58;10.30;;;2.38;;
37341;SDS011;58643;49.052;8.518;2024-02-21T10:56:38;13.73;;;2.60;;
37341;SDS011;58643;49.052;8.518;2024-02-21T10:59:06;7.40;;;2.20;;
37341;SDS011;58643;49.052;8.518;2024-02-21T11:01:33;7.18;;;2.30;;
37341;SDS011;58643;49.052;8.518;2024-02-21T11:04:03;7.07;;;2.30;;
37341;SDS011;58643;49.052;8.518;2024-02-21T11:06:30;6.57;;;2.03;;
37341;SDS011;58643;49.052;8.518;2024-02-21T11:09:02;9.50;;;2.10;;
37341;SDS011;58643;49.052;8.518;2024-02-21T11:11:35;9.02;;;2.30;;
37341;SDS011;58643;49.052;8.518;2024-02-21T11:16:43;9.43;;;2.33;;
37341;SDS011;58643;49.052;8.518;2024-02-21T11:21:44;7.53;;;2.78;;
37341;SDS011;58643;49.052;8.518;2024-02-21T11:24:09;9.52;;;2.40;;
37341;SDS011;58643;49.052;8.518;2024-02-21T11:26:37;11.63;;;2.58;;
37341;SDS011;58643;49.052;8.518;2024-02-21T11:29:03;7.53;;;2.28;;
37341;SDS011;58643;49.052;8.518;2024-02-21T11:31:43;3.95;;;1.50;;
37341;SDS011;58643;49.052;8.518;2024-02-21T11:34:11;6.30;;;1.95;;
37341;SDS011;58643;49.052;8.518;2024-02-21T11:36:50;6.10;;;1.83;;
37341;SDS011;58643;49.052;8.518;2024-02-21T11:39:20;7.88;;;2.33;;
37341;SDS011;58643;49.052;8.518;2024-02-21T11:42:02;7.35;;;1.80;;
37341;SDS011;58643;49.052;8.518;2024-02-21T11:44:29;5.93;;;2.38;;
37341;SDS011;58643;49.052;8.518;2024-02-21T11:46:55;9.75;;;1.80;;
37341;SDS011;58643;49.052;8.518;2024-02-21T11:49:20;7.95;;;1.98;;
37341;SDS011;58643;49.052;8.518;2024-02-21T11:51:46;7.18;;;1.92;;
37341;SDS011;58643;49.052;8.518;2024-02-21T11:54:13;8.48;;;2.25;;
37341;SDS011;58643;49.052;8.518;2024-02-21T11:56:41;8.13;;;2.10;;
37341;SDS011;58643;49.052;8.518;2024-02-21T11:59:07;7.38;;;1.70;;
37341;SDS011;58643;49.052;8.518;2024-02-21T12:01:34;5.25;;;1.73;;
37341;SDS011;58643;49.052;8.518;2024-02-21T12:03:59;8.23;;;1.95;;
37341;SDS011;58643;49.052;8.518;2024-02-21T12:06:25;4.65;;;2.20;;
37341;SDS011;58643;49.052;8.518;2024-02-21T12:08:50;6.45;;;1.63;;
37341;SDS011;58643;49.052;8.518;2024-02-21T12:11:19;5.22;;;2.10;;
37341;SDS011;58643;49.052;8.518;2024-02-21T12:13:46;11.60;;;2.20;;
37341;SDS011;58643;49.052;8.518;2024-02-21T12:16:15;10.15;;;3.03;;
37341;SDS011;58643;49.052;8.518;2024-02-21T12:18:43;4.75;;;1.50;;
37341;SDS011;58643;49.052;8.518;2024-02-21T12:21:09;7.57;;;1.55;;
37341;SDS011;58643;49.052;8.518;2024-02-21T12:23:37;6.55;;;1.80;;
37341;SDS011;58643;49.052;8.518;2024-02-21T12:26:04;7.90;;;1.70;;
37341;SDS011;58643;49.052;8.518;2024-02-21T12:28:30;6.38;;;1.50;;
37341;SDS011;58643;49.052;8.518;2024-02-21T12:30:55;5.78;;;1.40;;
37341;SDS011;58643;49.052;8.518;2024-02-21T12:33:21;4.88;;;1.42;;
37341;SDS011;58643;49.052;8.518;2024-02-21T12:35:47;5.90;;;1.73;;
37341;SDS011;58643;49.052;8.518;2024-02-21T12:38:14;4.80;;;1.73;;
37341;SDS011;58643;49.052;8.518;2024-02-21T12:40:39;7.13;;;1.77;;
37341;SDS011;58643;49.052;8.518;2024-02-21T12:43:05;8.00;;;1.85;;
37341;SDS011;58643;49.052;8.518;2024-02-21T12:45:31;8.40;;;1.70;;
37341;SDS011;58643;49.052;8.518;2024-02-21T12:47:56;3.50;;;1.33;;
37341;SDS011;58643;49.052;8.518;2024-02-21T12:50:22;3.47;;;1.52;;
37341;SDS011;58643;49.052;8.518;2024-02-21T12:52:48;8.23;;;2.00;;
37341;SDS011;58643;49.052;8.518;2024-02-21T12:55:14;7.15;;;2.55;;
37341;SDS011;58643;49.052;8.518;2024-02-21T12:57:41;7.50;;;2.00;;
37341;SDS011;58643;49.052;8.518;2024-02-21T13:00:07;5.75;;;1.85;;
37341;SDS011;58643;49.052;8.518;2024-02-21T13:02:33;9.60;;;2.58;;
37341;SDS011;58643;49.052;8.518;2024-02-21T13:04:59;6.53;;;1.75;;
37341;SDS011;58643;49.052;8.518;2024-02-21T13:07:27;6.05;;;1.90;;
37341;SDS011;58643;49.052;8.518;2024-02-21T13:09:53;8.32;;;2.17;;
37341;SDS011;58643;49.052;8.518;2024-02-21T13:12:19;7.07;;;2.10;;
37341;SDS011;58643;49.052;8.518;2024-02-21T13:14:45;7.70;;;1.63;;
37341;SDS011;58643;49.052;8.518;2024-02-21T13:17:10;6.25;;;1.65;;
37341;SDS011;58643;49.052;8.518;2024-02-21T13:19:36;7.30;;;1.98;;
37341;SDS011;58643;49.052;8.518;2024-02-21T13:22:01;6.35;;;1.55;;
37341;SDS011;58643;49.052;8.518;2024-02-21T13:24:27;6.78;;;2.28;;
37341;SDS011;58643;49.052;8.518;2024-02-21T13:26:53;5.03;;;2.33;;
37341;SDS011;58643;49.052;8.518;2024-02-21T13:29:18;9.57;;;2.88;;
37341;SDS011;58643;49.052;8.518;2024-02-21T13:31:45;7.40;;;1.92;;
37341;SDS011;58643;49.052;8.518;2024-02-21T13:34:11;5.70;;;1.80;;
37341;SDS011;58643;49.052;8.518;2024-02-21T13:36:36;6.55;;;1.77;;
37341;SDS011;58643;49.052;8.518;2024-02-21T13:39:02;11.52;;;2.28;;
37341;SDS011;58643;49.052;8.518;2024-02-21T13:41:30;7.70;;;2.03;;
37341;SDS011;58643;49.052;8.518;2024-02-21T13:43:56;8.60;;;2.40;;
37341;SDS011;58643;49.052;8.518;2024-02-21T13:46:21;9.02;;;2.33;;
37341;SDS011;58643;49.052;8.518;2024-02-21T13:48:47;9.70;;;2.03;;
37341;SDS011;58643;49.052;8.518;2024-02-21T13:51:12;9.30;;;1.77;;
37341;SDS011;58643;49.052;8.518;2024-02-21T13:53:38;8.25;;;2.67;;
37341;SDS011;58643;49.052;8.518;2024-02-21T13:56:04;9.55;;;1.92;;
37341;SDS011;58643;49.052;8.518;2024-02-21T13:58:29;6.30;;;2.63;;
